Time;durP1;ratioP1;P1;durP2;ratioP2;P2;SDS_P1;SDS_P2;PMS_P1;PMS_P2;Temp;Humidity;BMP_temperature;BMP_pressure;BME280_temperature;BME280_humidity;BME280_pressure;Samples;Min_cycle;Max_cycle;Signal;HPM_P1;HPM_P2
2022/04/12 00:01:37;;;;;;;6.40;2.80;;;;;;;7.80;43.61;100235.13;117297;1186;23573;-49
2022/04/12 00:04:06;;;;;;;6.60;2.40;;;;;;;7.75;43.57;100236.19;117306;1186;23542;-57
2022/04/12 00:06:36;;;;;;;4.90;2.60;;;;;;;7.71;43.65;100241.98;117304;1186;22994;-58
2022/04/12 00:09:24;;;;;;;4.80;2.70;;;;;;;7.67;43.73;100246.70;117268;1186;22932;-57
2022/04/12 00:11:53;;;;;;;7.30;2.50;;;;;;;7.63;43.79;100246.35;117275;1186;23552;-58
2022/04/12 00:14:42;;;;;;;6.80;2.90;;;;;;;7.59;43.50;100247.41;117037;1186;21899;-50
2022/04/12 00:19:58;;;;;;;8.00;3.20;;;;;;;7.52;43.86;100249.00;117284;1186;23602;-49
2022/04/12 00:22:28;;;;;;;6.60;2.60;;;;;;;7.48;43.79;100250.41;117154;1185;23586;-50
2022/04/12 00:25:01;;;;;;;;;;;;;;;7.45;43.59;100249.36;117154;1190;23570;-58
2022/04/12 00:27:30;;;;;;;7.30;3.00;;;;;;;7.41;43.95;100245.52;117473;1186;22919;-49
2022/04/12 00:29:58;;;;;;;6.30;3.10;;;;;;;7.38;43.92;100247.80;117278;1186;23592;-49
2022/04/12 00:32:27;;;;;;;6.20;2.80;;;;;;;7.35;43.65;100251.30;117350;1186;23619;-58
2022/04/12 00:34:56;;;;;;;5.40;2.80;;;;;;;7.33;43.75;100255.66;117227;1186;23555;-49
2022/04/12 00:37:25;;;;;;;6.30;3.50;;;;;;;7.32;43.81;100260.36;117318;1186;21888;-50
2022/04/12 00:39:54;;;;;;;5.40;2.70;;;;;;;7.30;43.69;100258.80;117319;1186;23710;-51
2022/04/12 00:42:22;;;;;;;7.40;3.10;;;;;;;7.26;43.61;100258.11;117307;1186;21898;-50
2022/04/12 00:44:54;;;;;;;8.60;3.40;;;;;;;7.23;43.84;100256.20;117321;1185;23578;-50
2022/04/12 00:47:25;;;;;;;6.40;3.10;;;;;;;7.20;43.76;100254.96;117120;1187;21952;-49
2022/04/12 00:49:53;;;;;;;5.70;2.90;;;;;;;7.15;43.72;100253.74;117234;1185;23705;-58
2022/04/12 00:52:22;;;;;;;5.70;2.80;;;;;;;7.12;43.68;100254.63;117235;1186;23556;-49
2022/04/12 00:54:53;;;;;;;4.70;2.70;;;;;;;7.09;43.78;100258.63;117152;1186;23566;-57
2022/04/12 00:57:21;;;;;;;8.90;3.40;;;;;;;7.06;43.75;100257.93;117273;1186;23555;-57
2022/04/12 00:59:51;;;;;;;5.10;2.80;;;;;;;7.05;43.84;100257.42;117230;1185;23507;-49
2022/04/12 01:02:19;;;;;;;7.30;3.40;;;;;;;7.04;44.06;100259.87;117023;1187;21861;-57
2022/04/12 01:04:49;;;;;;;8.10;3.50;;;;;;;7.03;43.70;100262.83;117169;1185;21939;-57
2022/04/12 01:07:19;;;;;;;9.40;3.30;;;;;;;7.01;44.10;100263.17;117014;1185;22948;-57
2022/04/12 01:09:48;;;;;;;8.10;3.10;;;;;;;6.99;43.76;100264.73;117287;1182;23606;-56
2022/04/12 01:12:21;;;;;;;6.30;3.40;;;;;;;6.98;43.88;100261.07;117281;1186;23564;-58
2022/04/12 01:14:50;;;;;;;6.50;3.40;;;;;;;6.94;43.93;100261.25;117256;1186;23595;-49
2022/04/12 01:17:18;;;;;;;8.40;3.80;;;;;;;6.92;43.97;100262.28;117240;1186;23811;-49
2022/04/12 01:19:47;;;;;;;9.90;3.80;;;;;;;6.91;44.15;100259.84;117281;1186;23557;-58
2022/04/12 01:22:19;;;;;;;7.00;3.80;;;;;;;6.90;44.02;100259.83;117277;1186;23551;-49
2022/04/12 01:25:08;;;;;;;5.20;3.00;;;;;;;6.88;43.94;100261.05;117321;1186;21971;-50
2022/04/12 01:27:36;;;;;;;6.70;3.80;;;;;;;6.82;43.77;100262.45;117265;1185;21859;-58
2022/04/12 01:30:06;;;;;;;5.60;3.10;;;;;;;6.77;43.87;100261.23;117273;1186;23667;-49
2022/04/12 01:32:35;;;;;;;;;;;;;;;6.71;43.87;100263.13;117288;1185;22930;-49
2022/04/12 01:35:04;;;;;;;6.50;3.80;;;;;;;6.64;43.91;100263.30;117296;1186;24800;-49
2022/04/12 01:37:34;;;;;;;9.10;3.90;;;;;;;6.58;43.89;100261.20;117278;1186;21863;-58
2022/04/12 01:40:04;;;;;;;8.10;3.80;;;;;;;6.54;44.10;100255.44;117291;1186;23576;-57
2022/04/12 01:42:33;;;;;;;7.80;3.80;;;;;;;6.48;44.00;100258.03;117222;1185;22931;-57
2022/04/12 01:45:01;;;;;;;9.00;4.20;;;;;;;6.42;44.06;100252.96;117322;1185;22881;-49
2022/04/12 01:47:32;;;;;;;7.10;3.70;;;;;;;6.36;44.12;100247.02;117327;1184;22836;-58
2022/04/12 01:50:03;;;;;;;7.00;3.90;;;;;;;6.30;44.20;100248.91;117350;1186;21843;-58
2022/04/12 01:52:33;;;;;;;8.10;3.60;;;;;;;6.26;44.04;100248.55;117330;1185;23638;-50
2022/04/12 01:55:02;;;;;;;6.10;3.70;;;;;;;6.21;44.09;100247.84;117282;1186;21851;-49
2022/04/12 01:57:32;;;;;;;7.40;4.10;;;;;;;6.18;44.16;100250.11;117353;1186;21861;-49
2022/04/12 02:00:01;;;;;;;6.30;3.60;;;;;;;6.15;43.72;100256.37;117339;1186;24169;-50
2022/04/12 02:02:30;;;;;;;6.10;3.40;;;;;;;6.15;44.16;100258.63;117379;1185;23672;-58
2022/04/12 02:04:58;;;;;;;5.80;3.50;;;;;;;6.12;44.23;100260.36;117300;1185;22944;-50
2022/04/12 02:07:27;;;;;;;6.20;3.50;;;;;;;6.10;44.35;100263.48;117344;1185;23548;-50
2022/04/12 02:10:18;;;;;;;7.00;3.80;;;;;;;6.05;44.21;100261.36;117294;1186;21953;-57
2022/04/12 02:12:47;;;;;;;8.80;4.10;;;;;;;6.02;44.31;100257.88;117292;1181;21848;-50
2022/04/12 02:15:37;;;;;;;8.90;3.90;;;;;;;6.05;44.33;100257.01;117148;1185;21889;-58
2022/04/12 02:18:06;;;;;;;6.40;3.80;;;;;;;6.04;44.48;100254.73;117346;1185;23551;-50
2022/04/12 02:20:54;;;;;;;9.50;5.10;;;;;;;6.01;44.37;100260.48;117261;1186;21856;-57
2022/04/12 02:23:22;;;;;;;8.10;4.40;;;;;;;5.98;44.20;100257.64;117304;1186;23564;-58
2022/04/12 02:26:02;;;;;;;7.50;4.40;;;;;;;5.94;44.29;100259.90;117313;1185;23566;-58
2022/04/12 02:28:31;;;;;;;9.50;5.10;;;;;;;5.90;44.49;100261.27;117323;1186;23576;-51
2022/04/12 02:31:00;;;;;;;7.10;4.60;;;;;;;5.89;44.48;100262.31;117317;1186;21864;-49
2022/04/12 02:33:29;;;;;;;8.50;4.50;;;;;;;5.86;44.41;100262.47;117313;1185;22640;-58
2022/04/12 02:36:00;;;;;;;8.90;4.60;;;;;;;5.86;44.49;100261.77;117337;1185;23448;-49
2022/04/12 02:38:47;;;;;;;8.50;5.00;;;;;;;5.83;44.59;100268.71;117268;1185;22668;-57
2022/04/12 02:41:16;;;;;;;7.30;3.80;;;;;;;5.81;44.38;100270.10;117372;1184;22729;-56
2022/04/12 02:43:51;;;;;;;9.00;5.00;;;;;;;5.80;44.40;100270.78;117298;1184;23572;-49
2022/04/12 02:46:19;;;;;;;9.60;4.30;;;;;;;5.77;44.23;100273.39;117279;1186;24013;-49
2022/04/12 02:48:50;;;;;;;6.90;4.40;;;;;;;5.72;44.31;100272.15;117251;1186;21915;-47
2022/04/12 02:51:19;;;;;;;8.30;4.70;;;;;;;5.67;44.44;100271.95;117283;1186;22949;-56
2022/04/12 02:53:47;;;;;;;9.50;4.90;;;;;;;5.64;44.50;100274.89;117276;1186;23596;-47
2022/04/12 02:56:16;;;;;;;7.70;4.60;;;;;;;5.61;44.45;100273.98;117239;1185;23552;-56
2022/04/12 02:58:45;;;;;;;6.30;4.40;;;;;;;5.57;44.72;100275.70;117242;1186;23557;-56
2022/04/12 03:01:14;;;;;;;8.70;4.90;;;;;;;5.54;44.83;100280.20;117155;1185;23549;-48
2022/04/12 03:03:44;;;;;;;6.10;4.00;;;;;;;5.50;44.91;100284.02;117192;1184;23550;-56
2022/04/12 03:06:13;;;;;;;8.40;4.80;;;;;;;5.49;44.85;100287.50;117238;1186;23563;-57
2022/04/12 03:09:01;;;;;;;7.00;4.90;;;;;;;5.47;44.93;100293.40;117214;1186;21840;-48
2022/04/12 03:11:31;;;;;;;9.60;5.00;;;;;;;5.47;44.61;100298.79;117209;1186;21853;-56
2022/04/12 03:14:20;;;;;;;8.30;4.50;;;;;;;5.44;44.79;100300.34;117125;1186;21841;-49
2022/04/12 03:16:48;;;;;;;9.60;5.30;;;;;;;5.41;44.86;100296.48;117279;1186;23567;-48
2022/04/12 03:19:36;;;;;;;10.30;5.00;;;;;;;5.35;44.82;100295.58;117153;1186;23567;-57
2022/04/12 03:22:05;;;;;;;11.90;5.90;;;;;;;5.31;44.75;100299.70;117156;1186;23705;-56
2022/04/12 03:24:45;;;;;;;8.20;4.80;;;;;;;5.26;44.73;100300.71;117238;1186;23574;-58
2022/04/12 03:27:14;;;;;;;8.30;5.00;;;;;;;5.24;44.90;100300.17;117154;1186;22900;-59
2022/04/12 03:29:42;;;;;;;9.30;5.60;;;;;;;5.25;44.82;100302.80;117251;1186;21842;-58
2022/04/12 03:32:10;;;;;;;8.60;5.30;;;;;;;5.25;44.78;100306.45;117341;1186;23692;-49
2022/04/12 03:34:42;;;;;;;9.30;5.60;;;;;;;5.25;45.19;100306.45;117290;1186;21861;-50
2022/04/12 03:37:11;;;;;;;9.40;5.50;;;;;;;5.23;45.19;100309.91;117299;1186;21839;-57
2022/04/12 03:39:42;;;;;;;9.40;6.00;;;;;;;5.23;45.20;100311.13;117063;1185;23651;-49
2022/04/12 03:42:11;;;;;;;7.40;5.20;;;;;;;5.24;45.07;100316.52;117129;1186;21851;-57
2022/04/12 03:44:41;;;;;;;7.60;5.30;;;;;;;5.23;44.96;100315.98;117108;1186;24231;-56
2022/04/12 03:47:09;;;;;;;9.10;5.90;;;;;;;5.21;45.27;100312.84;117217;1186;23001;-57
2022/04/12 03:49:38;;;;;;;10.80;6.70;;;;;;;5.21;45.36;100317.20;117099;1186;23557;-48
2022/04/12 03:52:09;;;;;;;9.10;5.00;;;;;;;5.20;45.23;100319.29;117262;1186;21901;-57
2022/04/12 03:54:38;;;;;;;;;;;;;;;5.20;45.46;100322.94;117228;1186;21862;-48
2022/04/12 03:57:06;;;;;;;7.90;4.60;;;;;;;5.23;45.38;100321.56;117300;1185;23579;-48
2022/04/12 03:59:35;;;;;;;8.70;5.10;;;;;;;5.23;45.18;100320.88;117145;1186;24255;-49
2022/04/12 04:02:04;;;;;;;8.40;4.70;;;;;;;5.23;45.35;100325.75;117249;1186;23006;-48
2022/04/12 04:04:36;;;;;;;8.40;5.10;;;;;;;5.25;45.44;100328.89;117329;1186;21840;-49
2022/04/12 04:07:05;;;;;;;9.70;5.30;;;;;;;5.27;45.61;100331.34;117280;1185;24214;-48
2022/04/12 04:09:34;;;;;;;10.90;5.50;;;;;;;5.30;45.33;100323.89;117251;1185;22084;-48
2022/04/12 04:12:03;;;;;;;9.00;5.30;;;;;;;5.35;45.55;100325.67;117284;1186;23577;-48
2022/04/12 04:14:52;;;;;;;8.00;5.20;;;;;;;5.35;45.82;100327.22;117254;1186;22209;-57
2022/04/12 04:17:22;;;;;;;8.20;5.20;;;;;;;5.39;45.90;100332.31;117284;1185;23554;-57
2022/04/12 04:19:50;;;;;;;9.90;5.70;;;;;;;5.45;45.88;100337.23;117285;1185;23577;-57
2022/04/12 04:22:18;;;;;;;8.50;5.50;;;;;;;5.50;45.78;100339.70;117215;1186;23579;-50
2022/04/12 04:24:47;;;;;;;8.50;6.10;;;;;;;5.58;45.84;100337.85;117067;1188;23577;-50
2022/04/12 04:27:16;;;;;;;9.20;5.60;;;;;;;5.66;45.63;100335.66;117139;1186;21916;-50
2022/04/12 04:29:45;;;;;;;8.50;5.20;;;;;;;5.74;45.68;100332.39;117294;1181;22074;-49
2022/04/12 04:32:14;;;;;;;11.30;6.20;;;;;;;5.79;45.88;100334.52;117320;1185;23567;-58
2022/04/12 04:34:43;;;;;;;9.60;5.30;;;;;;;5.85;45.80;100339.79;117194;1186;22777;-58
2022/04/12 04:37:11;;;;;;;9.00;5.30;;;;;;;5.92;45.98;100338.96;117285;1186;22643;-59
2022/04/12 04:39:40;;;;;;;9.00;5.70;;;;;;;5.99;46.10;100338.48;117278;1185;24273;-58
2022/04/12 04:42:12;;;;;;;9.90;5.60;;;;;;;6.06;46.03;100342.38;117215;1185;23593;-57
2022/04/12 04:44:41;;;;;;;8.70;5.60;;;;;;;6.12;46.03;100343.27;117868;1184;22455;-56
2022/04/12 04:47:10;;;;;;;7.60;5.20;;;;;;;6.17;46.32;100347.14;117625;1186;22635;-57
2022/04/12 04:49:38;;;;;;;11.50;5.70;;;;;;;6.22;46.11;100348.21;117270;1185;22625;-56
2022/04/12 04:52:07;;;;;;;10.30;5.90;;;;;;;6.29;46.15;100351.03;117279;1186;21857;-58
2022/04/12 04:54:36;;;;;;;8.30;5.50;;;;;;;6.36;46.37;100341.65;117267;1186;23606;-47
2022/04/12 04:57:04;;;;;;;8.60;5.30;;;;;;;6.51;46.52;100347.48;117361;1185;22930;-57
2022/04/12 04:59:33;;;;;;;7.40;4.50;;;;;;;6.68;46.40;100351.89;117272;1186;22596;-58
2022/04/12 05:02:02;;;;;;;9.20;5.30;;;;;;;6.84;46.24;100350.38;117374;1184;23557;-56
2022/04/12 05:04:31;;;;;;;9.50;5.40;;;;;;;6.97;46.44;100348.47;117421;1184;23573;-48
2022/04/12 05:07:01;;;;;;;10.40;5.90;;;;;;;7.12;46.41;100346.05;117253;1185;23574;-56
2022/04/12 05:09:30;;;;;;;8.90;5.20;;;;;;;7.28;46.53;100345.02;117348;1185;23563;-49
2022/04/12 05:11:59;;;;;;;7.80;4.90;;;;;;;7.45;46.79;100353.41;117422;1185;23643;-49
2022/04/12 05:14:27;;;;;;;8.00;5.00;;;;;;;7.60;46.51;100351.83;117383;1185;23550;-49
2022/04/12 05:16:55;;;;;;;8.80;5.20;;;;;;;7.73;46.66;100354.98;117176;1185;22911;-49
2022/04/12 05:19:24;;;;;;;8.70;4.80;;;;;;;7.85;46.76;100359.32;117385;1186;23568;-58
2022/04/12 05:22:12;;;;;;;8.10;4.80;;;;;;;8.00;46.78;100358.25;117249;1182;22942;-57
2022/04/12 05:24:41;;;;;;;7.90;5.10;;;;;;;8.13;46.68;100361.20;117274;1186;22798;-49
2022/04/12 05:27:10;;;;;;;8.80;4.70;;;;;;;8.24;46.70;100360.46;117266;1185;24011;-58
2022/04/12 05:29:39;;;;;;;9.50;5.00;;;;;;;8.35;46.57;100361.30;117259;1185;23554;-58
2022/04/12 05:32:09;;;;;;;9.20;5.10;;;;;;;8.48;46.83;100360.05;117316;1186;23575;-50
2022/04/12 05:34:39;;;;;;;7.90;4.80;;;;;;;8.63;46.93;100360.86;117314;1186;21965;-50
2022/04/12 05:37:08;;;;;;;8.00;5.10;;;;;;;8.75;46.76;100358.90;117302;1186;23552;-58
2022/04/12 05:39:37;;;;;;;9.10;4.80;;;;;;;8.85;46.78;100356.91;117313;1186;23630;-56
2022/04/12 05:42:05;;;;;;;7.60;5.30;;;;;;;8.98;46.75;100358.77;117257;1185;22703;-57
2022/04/12 05:44:34;;;;;;;8.00;4.80;;;;;;;9.09;46.70;100360.27;117183;1186;23647;-49
2022/04/12 05:47:06;;;;;;;8.70;4.80;;;;;;;9.20;46.76;100365.80;117317;1186;23579;-52
2022/04/12 05:49:35;;;;;;;;;;;;;;;9.29;46.64;100369.05;117145;1185;21837;-49
2022/04/12 05:52:05;;;;;;;7.80;4.60;;;;;;;9.39;46.69;100368.98;117960;1185;22849;-57
2022/04/12 05:54:34;;;;;;;12.00;5.00;;;;;;;9.50;46.51;100370.48;117205;1186;21861;-57
2022/04/12 05:57:02;;;;;;;8.40;4.40;;;;;;;9.60;46.67;100366.55;117247;1184;23028;-58
2022/04/12 05:59:31;;;;;;;8.00;4.70;;;;;;;9.72;46.69;100367.33;117144;1185;21855;-57
2022/04/12 06:01:59;;;;;;;8.00;4.70;;;;;;;9.84;46.73;100365.11;117311;1186;22921;-57
2022/04/12 06:04:28;;;;;;;10.10;4.80;;;;;;;9.93;46.54;100373.96;117215;1185;23551;-49
2022/04/12 06:06:57;;;;;;;8.40;4.70;;;;;;;10.03;46.54;100376.49;117157;1185;23549;-49
2022/04/12 06:09:25;;;;;;;6.90;4.50;;;;;;;10.16;46.52;100379.35;117188;1185;22814;-57
2022/04/12 06:12:03;;;;;;;8.70;4.50;;;;;;;10.23;46.52;100372.07;116974;1186;22890;-57
2022/04/12 06:14:31;;;;;;;9.30;4.50;;;;;;;10.38;46.28;100368.07;117217;1186;23565;-57
2022/04/12 06:17:20;;;;;;;8.30;4.40;;;;;;;10.54;46.33;100369.30;117111;1185;22308;-57
2022/04/12 06:19:48;;;;;;;7.10;4.50;;;;;;;10.64;46.53;100370.58;117300;1183;23457;-50
2022/04/12 06:22:17;;;;;;;6.30;3.50;;;;;;;10.74;46.31;100369.58;117306;1186;23553;-49
2022/04/12 06:24:46;;;;;;;5.40;3.30;;;;;;;10.96;46.65;100367.35;117180;1186;21880;-58
2022/04/12 06:27:14;;;;;;;7.80;3.70;;;;;;;11.13;46.36;100367.45;117162;1185;23576;-58
2022/04/12 06:29:43;;;;;;;9.20;3.80;;;;;;;11.28;46.21;100363.89;118358;1185;24153;-57
2022/04/12 06:32:11;;;;;;;6.40;3.80;;;;;;;11.50;46.09;100361.61;117271;1185;22828;-58
2022/04/12 06:34:40;;;;;;;6.90;3.50;;;;;;;11.64;45.87;100364.37;117069;1186;21863;-57
2022/04/12 06:37:08;;;;;;;7.20;3.70;;;;;;;11.72;45.97;100370.02;117247;1186;21840;-57
2022/04/12 06:39:38;;;;;;;6.60;3.50;;;;;;;11.76;45.95;100366.09;117268;1186;23556;-57
2022/04/12 06:42:07;;;;;;;12.10;4.20;;;;;;;11.75;45.80;100376.66;117211;1186;22977;-58
2022/04/12 06:44:37;;;;;;;6.80;3.40;;;;;;;11.87;45.28;100374.01;117000;1186;21860;-58
2022/04/12 06:47:05;;;;;;;9.30;3.80;;;;;;;11.95;45.06;100373.15;117266;1182;22973;-50
2022/04/12 06:49:46;;;;;;;6.20;3.30;;;;;;;12.03;44.80;100375.49;117074;1186;24018;-57
2022/04/12 06:52:16;;;;;;;8.60;3.20;;;;;;;12.16;45.13;100381.77;117157;1186;21853;-58
2022/04/12 06:54:48;;;;;;;9.60;3.60;;;;;;;12.28;44.78;100384.89;117155;1186;24204;-49
2022/04/12 06:57:17;;;;;;;12.80;5.20;;;;;;;12.38;44.59;100382.58;117247;1185;21855;-58
2022/04/12 06:59:46;;;;;;;6.70;3.60;;;;;;;12.49;44.54;100378.49;117139;1186;22644;-50
2022/04/12 07:02:15;;;;;;;6.70;3.30;;;;;;;12.59;44.34;100374.77;117320;1186;22587;-50
2022/04/12 07:04:44;;;;;;;6.90;3.80;;;;;;;12.65;43.97;100378.51;117287;1185;22643;-50
2022/04/12 07:07:12;;;;;;;8.60;3.10;;;;;;;12.71;44.15;100375.58;117331;1185;23563;-58
2022/04/12 07:10:01;;;;;;;9.90;3.40;;;;;;;12.81;44.08;100373.27;117264;1186;21846;-50
2022/04/12 07:12:30;;;;;;;11.80;3.40;;;;;;;12.88;44.11;100376.78;117179;1185;22845;-49
2022/04/12 07:14:59;;;;;;;5.60;2.50;;;;;;;12.92;43.26;100377.07;117356;1185;23469;-57
2022/04/12 07:17:29;;;;;;;4.70;2.70;;;;;;;12.98;43.28;100378.88;117315;1185;23474;-51
2022/04/12 07:19:57;;;;;;;9.50;3.90;;;;;;;13.09;43.83;100377.21;117167;1186;21859;-58
2022/04/12 07:22:28;;;;;;;6.60;3.30;;;;;;;13.28;43.67;100371.14;117307;1186;23557;-58
2022/04/12 07:24:57;;;;;;;5.00;2.70;;;;;;;13.46;43.83;100376.02;117074;1182;22643;-57
2022/04/12 07:27:26;;;;;;;4.80;2.90;;;;;;;13.57;43.38;100375.95;117203;1186;22952;-50
2022/04/12 07:29:56;;;;;;;5.60;2.80;;;;;;;13.63;43.44;100377.57;117338;1186;23557;-50
2022/04/12 07:32:26;;;;;;;4.90;2.30;;;;;;;13.74;43.60;100378.70;117336;1185;23602;-52
2022/04/12 07:34:54;;;;;;;5.60;3.00;;;;;;;13.81;43.47;100381.70;117315;1185;23636;-50
2022/04/12 07:37:23;;;;;;;6.20;2.50;;;;;;;13.91;43.34;100387.95;117257;1185;23554;-51
2022/04/12 07:39:54;;;;;;;6.10;2.90;;;;;;;13.97;42.27;100383.21;117290;1186;23582;-60
2022/04/12 07:42:23;;;;;;;8.60;2.70;;;;;;;14.00;42.42;100383.67;117299;1186;21854;-58
2022/04/12 07:44:52;;;;;;;7.30;2.30;;;;;;;14.00;42.13;100381.91;117249;1185;24178;-50
2022/04/12 07:47:21;;;;;;;4.40;2.20;;;;;;;13.94;41.60;100371.98;119281;1185;21782;-58
2022/04/12 07:50:00;;;;;;;5.40;2.50;;;;;;;14.05;42.69;100370.85;118287;1186;21908;-51
2022/04/12 07:52:29;;;;;;;7.40;2.30;;;;;;;14.24;43.15;100368.02;119238;1185;21780;-52
2022/04/12 07:54:57;;;;;;;6.00;2.50;;;;;;;14.32;42.68;100365.20;119353;1184;21775;-50
2022/04/12 07:57:34;;;;;;;4.30;2.10;;;;;;;14.37;42.40;100362.90;117665;1186;23553;-50
2022/04/12 08:00:05;;;;;;;6.30;2.40;;;;;;;14.38;42.96;100365.34;117328;1186;23260;-57
2022/04/12 08:02:33;;;;;;;5.30;2.30;;;;;;;14.35;42.53;100364.90;117189;1185;23001;-56
2022/04/12 08:05:02;;;;;;;6.50;2.00;;;;;;;14.45;41.82;100365.31;119367;1185;21771;-52
2022/04/12 08:07:30;;;;;;;5.00;1.90;;;;;;;14.70;42.59;100365.50;119361;1185;21811;-51
2022/04/12 08:09:59;;;;;;;5.50;2.10;;;;;;;14.89;41.75;100364.44;119359;1185;21842;-53
2022/04/12 08:12:28;;;;;;;6.70;2.10;;;;;;;14.97;42.24;100363.85;119291;1185;21782;-59
2022/04/12 08:14:59;;;;;;;4.60;2.30;;;;;;;14.92;41.62;100365.23;119288;1186;21816;-58
2022/04/12 08:17:27;;;;;;;4.60;2.40;;;;;;;14.92;41.23;100364.68;119216;1186;21769;-51
2022/04/12 08:19:56;;;;;;;6.70;1.90;;;;;;;14.97;41.42;100360.84;119264;1185;21808;-60
2022/04/12 08:22:25;;;;;;;6.00;2.10;;;;;;;15.00;40.68;100354.36;119305;1185;21840;-51
2022/04/12 08:25:13;;;;;;;4.40;2.00;;;;;;;15.10;40.99;100354.95;119282;1185;21766;-51
2022/04/12 08:27:42;;;;;;;3.70;2.00;;;;;;;15.29;40.77;100351.36;119214;1186;21786;-58
2022/04/12 08:30:11;;;;;;;5.20;2.60;;;;;;;15.49;41.11;100349.45;119327;1183;21625;-51
2022/04/12 08:32:40;;;;;;;4.80;2.20;;;;;;;15.61;41.07;100344.84;119394;1185;21778;-58
2022/04/12 08:35:09;;;;;;;3.70;2.10;;;;;;;15.57;40.97;100349.55;119305;1185;21828;-57
2022/04/12 08:37:38;;;;;;;4.20;1.70;;;;;;;15.45;40.40;100352.23;119355;1184;21781;-57
2022/04/12 08:40:07;;;;;;;5.80;2.20;;;;;;;15.43;39.48;100347.72;119347;1185;21799;-57
2022/04/12 08:42:35;;;;;;;5.40;1.90;;;;;;;15.56;39.67;100351.89;119373;1185;21776;-52
2022/04/12 08:45:06;;;;;;;10.50;2.20;;;;;;;15.68;40.02;100346.70;119298;1185;22135;-58
2022/04/12 08:47:35;;;;;;;4.30;2.00;;;;;;;15.64;39.55;100350.77;119377;1185;21768;-62
2022/04/12 08:50:05;;;;;;;7.30;2.30;;;;;;;15.39;40.15;100352.45;119372;1185;21756;-51
2022/04/12 08:52:35;;;;;;;;;;;;;;;15.21;39.31;100342.05;119367;1185;21786;-52
2022/04/12 08:55:06;;;;;;;4.20;1.50;;;;;;;15.25;39.54;100362.10;119354;1185;21788;-57
2022/04/12 08:57:35;;;;;;;3.60;1.70;;;;;;;15.33;39.60;100357.56;119314;1185;21771;-58
2022/04/12 09:00:05;;;;;;;2.10;1.20;;;;;;;15.52;39.17;100362.47;119371;1185;21768;-58
2022/04/12 09:02:34;;;;;;;3.80;1.30;;;;;;;15.68;38.49;100356.63;119344;1185;22195;-57
2022/04/12 09:05:04;;;;;;;3.50;1.60;;;;;;;15.65;38.53;100358.84;118575;1185;21857;-56
2022/04/12 09:07:36;;;;;;;;;;;;;;;15.68;38.71;100363.52;119357;1185;21804;-58
2022/04/12 09:10:09;;;;;;;4.90;2.40;;;;;;;15.88;38.98;100355.06;119241;1186;21844;-57
2022/04/12 09:12:38;;;;;;;6.50;2.90;;;;;;;16.15;39.26;100362.10;119294;1186;21776;-57
2022/04/12 09:15:09;;;;;;;4.50;1.70;;;;;;;16.32;39.24;100365.21;119339;1184;21702;-52
2022/04/12 09:17:57;;;;;;;4.10;1.80;;;;;;;16.60;39.25;100354.80;119192;1186;22091;-57
2022/04/12 09:20:27;;;;;;;4.00;1.60;;;;;;;16.86;39.39;100357.20;117400;1185;22704;-49
2022/04/12 09:23:00;;;;;;;8.00;2.10;;;;;;;17.02;39.79;100348.08;119337;1185;21879;-51
2022/04/12 09:25:30;;;;;;;3.60;2.00;;;;;;;16.94;38.02;100360.26;119332;1185;21836;-52
2022/04/12 09:28:01;;;;;;;6.10;1.70;;;;;;;16.61;36.99;100351.92;119386;1184;21766;-57
2022/04/12 09:30:31;;;;;;;4.10;1.80;;;;;;;16.45;37.20;100355.17;119355;1185;21785;-57
2022/04/12 09:33:00;;;;;;;5.70;1.70;;;;;;;16.49;36.85;100342.46;119336;1185;21794;-51
2022/04/12 09:35:28;;;;;;;4.60;1.90;;;;;;;16.57;37.60;100344.64;119338;1184;21788;-60
2022/04/12 09:37:58;;;;;;;4.20;1.70;;;;;;;16.57;37.50;100349.79;119338;1185;22090;-52
2022/04/12 09:40:26;;;;;;;3.80;2.10;;;;;;;16.34;37.34;100342.31;119176;1186;21751;-50
2022/04/12 09:42:57;;;;;;;4.60;1.80;;;;;;;16.25;38.02;100347.24;119318;1185;21851;-54
2022/04/12 09:45:30;;;;;;;7.80;2.10;;;;;;;16.18;37.49;100345.70;119381;1185;21770;-51
2022/04/12 09:48:01;;;;;;;6.70;1.90;;;;;;;15.98;37.10;100341.10;117860;1186;23449;-57
2022/04/12 09:50:51;;;;;;;5.20;2.20;;;;;;;15.67;36.26;100352.20;117059;1186;23581;-57
2022/04/12 09:53:20;;;;;;;6.10;2.20;;;;;;;15.34;36.65;100357.54;119360;1185;21786;-57
2022/04/12 09:55:49;;;;;;;9.30;2.20;;;;;;;15.07;36.88;100358.77;119279;1185;22141;-58
2022/04/12 09:58:21;;;;;;;4.70;1.90;;;;;;;15.15;37.83;100362.21;119352;1185;21807;-57
2022/04/12 10:00:50;;;;;;;6.70;1.90;;;;;;;15.39;37.85;100353.66;119335;1185;21752;-58
2022/04/12 10:03:20;;;;;;;14.60;2.80;;;;;;;15.61;36.65;100350.50;119171;1186;22156;-57
2022/04/12 10:05:49;;;;;;;5.80;2.10;;;;;;;15.60;36.22;100354.75;119283;1185;21785;-57
2022/04/12 10:08:19;;;;;;;3.90;1.60;;;;;;;15.37;36.99;100359.75;119327;1185;21763;-57
2022/04/12 10:10:48;;;;;;;5.70;1.90;;;;;;;14.94;36.04;100357.39;119175;1185;21805;-57
2022/04/12 10:13:16;;;;;;;3.70;1.50;;;;;;;14.65;36.38;100362.30;119391;1185;21758;-57
2022/04/12 10:15:45;;;;;;;5.20;1.80;;;;;;;14.51;36.88;100350.33;119389;1185;21776;-57
2022/04/12 10:18:15;;;;;;;3.40;1.40;;;;;;;14.66;37.64;100342.65;119332;1185;22237;-57
2022/04/12 10:20:44;;;;;;;;;;;;;;;15.18;36.95;100335.61;119213;1185;21785;-58
2022/04/12 10:23:16;;;;;;;4.30;1.70;;;;;;;15.80;37.68;100345.96;119332;1185;21801;-57
2022/04/12 10:26:04;;;;;;;4.80;1.50;;;;;;;16.23;36.97;100352.25;119232;1185;22259;-56
2022/04/12 10:28:53;;;;;;;4.30;1.60;;;;;;;16.19;37.10;100351.86;119287;1185;21809;-51
2022/04/12 10:31:25;;;;;;;7.10;1.90;;;;;;;16.04;36.52;100356.81;119361;1184;22169;-51
2022/04/12 10:34:11;;;;;;;6.00;1.60;;;;;;;16.09;36.02;100349.06;119383;1185;21763;-51
2022/04/12 10:37:04;;;;;;;3.10;1.40;;;;;;;15.96;35.97;100355.88;119118;1185;21782;-52
2022/04/12 10:39:56;;;;;;;9.70;2.60;;;;;;;15.66;35.33;100350.85;119286;1186;22199;-52
2022/04/12 10:42:26;;;;;;;4.20;1.50;;;;;;;15.45;35.49;100353.83;119180;1185;21825;-52
2022/04/12 10:44:56;;;;;;;6.60;1.60;;;;;;;15.32;35.55;100352.66;119266;1185;22077;-52
2022/04/12 10:47:33;;;;;;;13.40;1.80;;;;;;;15.40;36.02;100348.16;119384;1185;22156;-51
2022/04/12 10:50:05;;;;;;;5.10;1.80;;;;;;;15.78;36.34;100353.09;119404;1185;21761;-52
2022/04/12 10:52:50;;;;;;;3.80;1.60;;;;;;;15.99;35.27;100353.64;119377;1185;21723;-52
2022/04/12 10:55:19;;;;;;;7.40;1.70;;;;;;;16.02;35.73;100352.65;119357;1185;21826;-52
2022/04/12 10:57:49;;;;;;;4.40;1.40;;;;;;;15.87;35.43;100361.84;119260;1185;22116;-58
2022/04/12 11:00:23;;;;;;;6.10;2.00;;;;;;;15.89;35.34;100363.18;119267;1186;21825;-51
2022/04/12 11:02:56;;;;;;;3.10;1.40;;;;;;;16.25;36.06;100361.75;119283;1185;22244;-50
2022/04/12 11:05:37;;;;;;;7.30;1.60;;;;;;;16.63;35.22;100347.06;119362;1185;21706;-57
2022/04/12 11:08:14;;;;;;;;;;;;;;;16.68;34.45;100358.05;119404;1185;22329;-51
2022/04/12 11:11:04;;;;;;;3.30;1.10;;;;;;;16.38;34.04;100364.64;118939;1185;21864;-57
2022/04/12 11:13:35;;;;;;;4.40;1.30;;;;;;;16.04;34.85;100361.79;117230;1186;23449;-57
2022/04/12 11:16:10;;;;;;;2.90;1.40;;;;;;;15.72;34.56;100360.73;119354;1185;22282;-57
2022/04/12 11:18:46;;;;;;;3.90;1.20;;;;;;;15.38;34.26;100362.36;119279;1185;21788;-57
2022/04/12 11:21:15;;;;;;;6.60;1.50;;;;;;;15.11;33.43;100366.59;119263;1185;21814;-57
2022/04/12 11:23:56;;;;;;;2.30;1.10;;;;;;;14.86;33.66;100373.88;119165;1186;21764;-57
2022/04/12 11:26:36;;;;;;;2.70;1.10;;;;;;;14.75;33.85;100372.97;119373;1185;21835;-57
2022/04/12 11:29:08;;;;;;;3.90;1.50;;;;;;;14.87;34.26;100376.31;119266;1185;21762;-57
2022/04/12 11:31:43;;;;;;;4.60;1.60;;;;;;;14.96;34.51;100373.95;119320;1185;21820;-57
2022/04/12 11:34:12;;;;;;;4.50;1.20;;;;;;;14.94;34.18;100372.77;119266;1185;22213;-57
2022/04/12 11:36:54;;;;;;;4.00;1.50;;;;;;;14.85;34.05;100381.33;119278;1185;21801;-57
2022/04/12 11:39:27;;;;;;;2.90;1.20;;;;;;;14.81;34.33;100380.21;119167;1186;22366;-57
2022/04/12 11:42:01;;;;;;;4.20;1.60;;;;;;;14.74;33.74;100382.36;119146;1186;21693;-57
2022/04/12 11:44:31;;;;;;;3.10;1.10;;;;;;;14.67;33.44;100385.55;119127;1186;21791;-57